Time;durP1;ratioP1;P1;durP2;ratioP2;P2;SDS_P1;SDS_P2;PMS_P1;PMS_P2;Temp;Humidity;BMP_temperature;BMP_pressure;BME280_temperature;BME280_humidity;BME280_pressure;Samples;Min_cycle;Max_cycle;Signal;HPM_P1;HPM_P2
2024/01/01 00:01:42;;;;;;;15.13;7.47;;;;;;;7.05;79.99;98900.94;10425715;28;20049;-83
2024/01/01 00:06:45;;;;;;;14.85;7.57;;;;;;;7.33;78.76;98898.44;10421985;28;20052;-82
2024/01/01 00:11:48;;;;;;;15.32;7.00;;;;;;;7.18;79.87;98903.34;10425015;28;20053;-79
2024/01/01 00:16:52;;;;;;;12.10;6.93;;;;;;;7.26;81.39;98909.66;10428203;28;20047;-82
2024/01/01 00:21:55;;;;;;;12.18;7.30;;;;;;;7.11;82.73;98902.22;10429163;28;20045;-81
2024/01/01 00:26:58;;;;;;;11.80;6.78;;;;;;;7.20;82.02;98904.03;10420591;28;21147;-79
2024/01/01 00:32:05;;;;;;;14.20;7.90;;;;;;;7.22;82.71;98902.09;10415025;28;21125;-79
2024/01/01 00:37:08;;;;;;;15.05;6.65;;;;;;;6.88;84.01;98906.94;10471512;28;20566;-82
2024/01/01 00:42:11;;;;;;;11.27;6.07;;;;;;;6.74;83.34;98900.97;10474036;28;20055;-82
2024/01/01 00:47:16;;;;;;;13.65;7.80;;;;;;;7.08;83.12;98911.34;10469678;28;20041;-83
2024/01/01 00:52:19;;;;;;;11.30;6.15;;;;;;;7.10;82.38;98900.50;10447353;28;20079;-82
2024/01/01 00:57:22;;;;;;;12.70;7.22;;;;;;;7.08;81.63;98902.50;10431288;28;20049;-82
2024/01/01 01:02:26;;;;;;;17.02;6.82;;;;;;;7.12;81.68;98909.22;10472162;28;20032;-80
2024/01/01 01:07:30;;;;;;;12.00;5.28;;;;;;;7.24;80.40;98911.66;10451428;28;20048;-81
2024/01/01 01:12:33;;;;;;;13.15;5.50;;;;;;;7.27;79.28;98900.69;10457211;28;20447;-80
2024/01/01 01:17:37;;;;;;;8.23;3.75;;;;;;;7.01;78.41;98899.53;10483068;28;20051;-82
2024/01/01 01:22:40;;;;;;;9.90;3.83;;;;;;;7.26;77.64;98912.34;10452255;28;20075;-81
2024/01/01 01:27:43;;;;;;;10.32;4.80;;;;;;;7.15;77.40;98901.78;10456132;28;20069;-80
2024/01/01 01:32:48;;;;;;;9.25;3.88;;;;;;;7.59;75.46;98899.56;10462184;28;20036;-82
2024/01/01 01:37:51;;;;;;;10.18;4.72;;;;;;;7.15;77.08;98893.78;10465008;28;20139;-82
2024/01/01 01:42:54;;;;;;;8.70;4.38;;;;;;;7.14;77.01;98899.28;10502227;28;20511;-80
2024/01/01 01:47:58;;;;;;;8.27;4.15;;;;;;;7.06;77.15;98908.81;10498417;28;20056;-81
2024/01/01 01:53:02;;;;;;;8.38;4.50;;;;;;;7.15;76.48;98900.94;10473716;28;20047;-82
2024/01/01 01:58:05;;;;;;;8.80;3.78;;;;;;;7.25;75.98;98910.66;10458856;28;20672;-82
2024/01/01 02:03:10;;;;;;;10.57;5.18;;;;;;;7.12;76.16;98914.56;10458632;28;20564;-82
2024/01/01 02:08:14;;;;;;;9.18;3.92;;;;;;;6.98;76.36;98918.47;10462967;28;20071;-82
2024/01/01 02:13:24;;;;;;;11.55;4.57;;;;;;;7.16;75.40;98898.16;10468889;28;20743;-82
2024/01/01 02:18:29;;;;;;;11.95;5.43;;;;;;;7.25;74.73;98893.78;10487690;28;20055;-80
2024/01/01 02:23:34;;;;;;;8.77;3.75;;;;;;;7.02;75.92;98886.03;10495228;28;20105;-78
2024/01/01 02:28:37;;;;;;;9.50;4.30;;;;;;;7.46;74.00;98894.50;10522315;28;20104;-78
2024/01/01 02:33:40;;;;;;;13.35;5.60;;;;;;;7.52;74.15;98890.44;10519063;28;20051;-80
2024/01/01 02:38:49;;;;;;;15.95;5.45;;;;;;;7.28;75.22;98878.31;10507796;28;20100;-77
2024/01/01 02:43:52;;;;;;;15.65;5.40;;;;;;;7.23;74.76;98883.25;10490326;28;20148;-79
2024/01/01 02:48:55;;;;;;;10.75;5.13;;;;;;;7.36;74.86;98874.97;10491636;28;20056;-77
2024/01/01 02:53:59;;;;;;;12.30;3.65;;;;;;;7.53;73.75;98878.75;10479110;28;20036;-77
2024/01/01 02:59:02;;;;;;;13.70;4.20;;;;;;;7.41;73.45;98883.41;10492527;28;20096;-78
2024/01/01 03:04:05;;;;;;;10.40;4.82;;;;;;;7.18;74.16;98888.16;10502546;28;20044;-80
2024/01/01 03:09:09;;;;;;;9.88;4.68;;;;;;;7.59;72.54;98859.47;10454693;28;20048;-81
2024/01/01 03:14:12;;;;;;;9.27;3.25;;;;;;;7.25;72.56;98867.09;10455602;28;20044;-81
2024/01/01 03:19:15;;;;;;;12.50;3.85;;;;;;;7.15;72.93;98860.88;10465648;28;20048;-82
2024/01/01 03:24:20;;;;;;;9.75;4.53;;;;;;;7.34;72.04;98873.41;10480736;28;20063;-82
2024/01/01 03:29:23;;;;;;;10.02;4.15;;;;;;;7.20;72.04;98878.19;10476291;28;20131;-81
2024/01/01 03:34:26;;;;;;;9.90;4.07;;;;;;;7.41;71.35;98882.56;10457198;28;20466;-81
2024/01/01 03:39:30;;;;;;;9.13;2.85;;;;;;;7.25;71.07;98875.09;10455521;28;20135;-81
2024/01/01 03:44:33;;;;;;;12.25;3.20;;;;;;;7.42;71.10;98873.56;10463351;28;20049;-83
2024/01/01 03:49:36;;;;;;;8.63;3.22;;;;;;;7.44;70.97;98859.06;10478400;28;20067;-80
2024/01/01 03:54:41;;;;;;;12.68;3.53;;;;;;;7.36;71.36;98868.78;10457681;28;20135;-81
2024/01/01 03:59:44;;;;;;;10.65;3.20;;;;;;;7.44;71.06;98860.91;10472293;28;20045;-81
2024/01/01 04:04:47;;;;;;;7.47;2.20;;;;;;;7.34;71.23;98855.56;10472548;28;20044;-81
2024/01/01 04:09:52;;;;;;;9.07;2.95;;;;;;;6.74;73.54;98881.44;10457206;28;20076;-81
2024/01/01 04:14:55;;;;;;;8.38;2.33;;;;;;;6.97;73.48;98888.28;10469367;28;20048;-81
2024/01/01 04:19:58;;;;;;;7.07;1.80;;;;;;;6.36;80.88;98918.53;10453830;28;20037;-82
2024/01/01 04:25:02;;;;;;;9.38;2.25;;;;;;;6.17;86.82;98913.94;10468049;28;20037;-81
2024/01/01 04:30:07;;;;;;;8.45;2.58;;;;;;;5.28;100.00;98948.03;10444808;28;20045;-83
2024/01/01 04:35:10;;;;;;;4.45;2.25;;;;;;;4.78;100.00;98922.84;10467594;28;20044;-82
2024/01/01 04:40:15;;;;;;;11.45;2.83;;;;;;;4.98;100.00;98927.38;10446619;28;20060;-83
2024/01/01 04:45:18;;;;;;;7.90;2.53;;;;;;;5.04;100.00;98926.06;10451368;28;20056;-83
2024/01/01 04:50:22;;;;;;;7.20;1.98;;;;;;;4.89;100.00;98921.97;10457315;28;20105;-84
2024/01/01 04:55:26;;;;;;;6.88;1.88;;;;;;;4.86;100.00;98928.38;10473416;28;20101;-84
2024/01/01 05:00:29;;;;;;;3.53;1.60;;;;;;;4.70;100.00;98935.91;10514209;28;20032;-83
2024/01/01 05:05:32;;;;;;;5.40;1.73;;;;;;;5.12;100.00;98936.09;10467196;28;20099;-82
2024/01/01 05:10:38;;;;;;;3.38;1.00;;;;;;;4.89;100.00;98929.97;10465580;28;20036;-84
2024/01/01 05:15:42;;;;;;;6.07;1.42;;;;;;;5.01;100.00;98932.50;10465689;28;20048;-83
2024/01/01 05:20:45;;;;;;;3.22;1.10;;;;;;;5.41;100.00;98939.88;10465043;28;20043;-83
2024/01/01 05:25:50;;;;;;;3.53;1.58;;;;;;;5.44;100.00;98936.13;10451760;28;20072;-85
2024/01/01 05:30:53;;;;;;;6.65;1.63;;;;;;;5.44;100.00;98942.28;10472489;28;20041;-85
2024/01/01 05:35:56;;;;;;;6.53;1.73;;;;;;;5.17;100.00;98950.72;10482405;28;20063;-85
2024/01/01 05:41:00;;;;;;;7.63;1.70;;;;;;;5.50;100.00;98928.47;10470602;28;20061;-83
2024/01/01 05:46:04;;;;;;;6.38;1.02;;;;;;;5.32;100.00;98934.47;10462745;28;20662;-83
2024/01/01 05:51:07;;;;;;;3.50;1.60;;;;;;;5.69;100.00;98930.44;10440009;28;20515;-84
2024/01/01 05:56:12;;;;;;;5.63;1.50;;;;;;;5.58;100.00;98927.00;10448583;28;20073;-85
2024/01/01 06:01:15;;;;;;;6.03;1.38;;;;;;;5.32;100.00;98937.13;10468754;28;20598;-84
2024/01/01 06:06:18;;;;;;;5.30;1.25;;;;;;;5.60;100.00;98922.41;10484617;28;20087;-84
2024/01/01 06:11:22;;;;;;;13.45;1.77;;;;;;;5.64;100.00;98926.47;10472786;28;20484;-83
2024/01/01 06:16:25;;;;;;;6.60;1.35;;;;;;;5.67;99.55;98944.84;10444860;28;20068;-83
2024/01/01 06:21:28;;;;;;;4.03;1.50;;;;;;;5.72;98.52;98932.84;10445640;28;20569;-82
2024/01/01 06:26:33;;;;;;;6.47;2.17;;;;;;;5.77;98.13;98943.13;10462329;28;20049;-83
2024/01/01 06:31:36;;;;;;;5.88;1.38;;;;;;;5.84;96.38;98948.78;10482501;28;20043;-83
2024/01/01 06:36:39;;;;;;;5.78;1.40;;;;;;;5.88;95.45;98956.38;10464281;28;20056;-81
2024/01/01 06:41:44;;;;;;;6.82;1.70;;;;;;;5.96;94.88;98961.06;10451583;28;20056;-82
2024/01/01 06:46:46;;;;;;;7.97;1.58;;;;;;;5.94;95.63;98960.34;10477007;28;20048;-83
2024/01/01 06:51:50;;;;;;;6.53;1.67;;;;;;;5.84;94.41;98970.97;10447594;28;20073;-83
2024/01/01 06:56:55;;;;;;;5.45;1.48;;;;;;;5.71;95.52;98973.78;10451379;28;20064;-84
2024/01/01 07:01:59;;;;;;;7.35;1.50;;;;;;;5.62;99.97;98982.56;10455726;28;20049;-83
2024/01/01 07:07:03;;;;;;;17.15;1.65;;;;;;;5.41;100.00;99001.13;10460283;28;20041;-84
2024/01/01 07:12:19;;;;;;;10.65;2.90;;;;;;;5.48;100.00;98996.16;10475528;28;20029;-79
2024/01/01 07:17:22;;;;;;;12.35;1.75;;;;;;;5.41;100.00;98990.50;10481190;28;20068;-81
2024/01/01 07:22:25;;;;;;;11.88;2.20;;;;;;;5.57;100.00;99005.19;10455178;28;20040;-84
2024/01/01 07:27:30;;;;;;;13.07;2.10;;;;;;;5.73;100.00;99001.16;10463311;28;20045;-82
2024/01/01 07:32:33;;;;;;;12.43;2.33;;;;;;;5.73;100.00;99008.28;10468452;28;20049;-82
2024/01/01 07:37:37;;;;;;;12.77;2.85;;;;;;;5.54;100.00;99022.31;10460179;28;20041;-83
2024/01/01 07:42:41;;;;;;;14.05;2.35;;;;;;;5.59;100.00;99024.56;10466100;28;20041;-81
2024/01/01 07:47:45;;;;;;;12.40;2.05;;;;;;;5.61;100.00;99023.47;10471292;28;20064;-81
2024/01/01 07:52:48;;;;;;;19.05;2.10;;;;;;;5.80;100.00;99035.28;10459701;28;20048;-83
2024/01/01 07:57:53;;;;;;;13.10;2.17;;;;;;;5.49;100.00;99035.97;10468905;28;20416;-84
2024/01/01 08:02:56;;;;;;;10.93;2.05;;;;;;;5.72;100.00;99036.75;10469097;28;20032;-83
2024/01/01 08:07:59;;;;;;;12.45;1.70;;;;;;;5.99;100.00;99040.78;10470406;28;20048;-82
2024/01/01 08:13:03;;;;;;;13.85;2.05;;;;;;;5.93;100.00;99049.28;10469603;28;20080;-84
2024/01/01 08:18:07;;;;;;;10.18;2.47;;;;;;;5.92;99.14;99048.44;10449432;28;20048;-82
2024/01/01 08:23:11;;;;;;;14.25;1.85;;;;;;;6.08;95.97;99047.16;10458533;28;20048;-85
2024/01/01 08:28:15;;;;;;;18.67;3.33;;;;;;;6.04;95.35;99061.72;10453431;28;20504;-82
2024/01/01 08:33:18;;;;;;;12.95;2.05;;;;;;;6.24;94.39;99055.56;10473185;28;20568;-85
2024/01/01 08:38:21;;;;;;;11.70;1.83;;;;;;;6.24;92.37;99063.56;10450352;28;20049;-84
2024/01/01 08:43:26;;;;;;;10.27;1.80;;;;;;;6.26;91.18;99066.97;10454794;28;20071;-83
2024/01/01 08:48:29;;;;;;;13.75;1.77;;;;;;;6.52;89.17;99056.72;10464061;28;20048;-82
2024/01/01 08:53:33;;;;;;;9.20;1.75;;;;;;;6.25;89.92;99069.75;10458577;28;20041;-84
2024/01/01 08:58:39;;;;;;;5.45;1.30;;;;;;;6.06;90.82;99081.97;10445782;28;20064;-85
2024/01/01 09:03:42;;;;;;;10.38;1.95;;;;;;;5.72;92.27;99086.53;10465850;28;20051;-82
2024/01/01 09:08:46;;;;;;;6.72;1.17;;;;;;;6.22;89.28;99104.66;10480427;28;20048;-83
2024/01/01 09:13:50;;;;;;;7.68;1.92;;;;;;;5.90;90.39;99106.38;10472691;28;20127;-82
2024/01/01 09:18:53;;;;;;;9.27;1.48;;;;;;;6.06;88.76;99110.41;10445104;28;20048;-81
2024/01/01 09:24:00;;;;;;;8.77;1.85;;;;;;;5.86;89.22;99128.88;10460012;28;20036;-78
2024/01/01 09:29:05;;;;;;;7.03;1.42;;;;;;;5.95;88.87;99127.28;10498747;28;20132;-83
2024/01/01 09:34:08;;;;;;;9.82;1.88;;;;;;;6.23;86.84;99122.38;10477763;28;20037;-83
2024/01/01 09:39:11;;;;;;;4.10;1.90;;;;;;;6.25;87.96;99137.25;10462567;28;20083;-83
2024/01/01 09:44:16;;;;;;;9.10;1.67;;;;;;;6.55;88.02;99136.50;10483642;28;20041;-83
2024/01/01 09:49:19;;;;;;;11.52;1.45;;;;;;;5.83;93.64;99153.13;10469316;28;20102;-83
2024/01/01 09:54:22;;;;;;;6.63;1.63;;;;;;;6.02;92.64;99154.31;10467298;28;20040;-80
2024/01/01 09:59:37;;;;;;;8.15;1.95;;;;;;;5.72;93.24;99153.16;10491174;28;20040;-82
2024/01/01 10:04:41;;;;;;;7.68;1.77;;;;;;;5.62;93.74;99186.81;10488986;28;20032;-80
2024/01/01 10:09:48;;;;;;;7.18;1.73;;;;;;;5.85;93.13;99161.00;10484779;28;20146;-79
2024/01/01 10:14:58;;;;;;;7.13;1.88;;;;;;;6.13;94.05;99168.44;10474279;28;20048;-79
2024/01/01 10:20:03;;;;;;;10.85;1.80;;;;;;;5.67;100.00;99166.00;10489694;28;20467;-81
2024/01/01 10:25:11;;;;;;;3.95;1.77;;;;;;;5.41;100.00;99181.38;10476989;28;20068;-80
2024/01/01 10:30:16;;;;;;;9.65;1.77;;;;;;;5.62;100.00;99184.16;10488486;28;20068;-80
2024/01/01 10:35:20;;;;;;;11.35;2.30;;;;;;;5.93;98.48;99175.41;10478291;28;20051;-81
2024/01/01 10:40:23;;;;;;;4.68;1.17;;;;;;;5.53;100.00;99175.06;10486946;28;20068;-81
2024/01/01 10:45:28;;;;;;;4.13;0.90;;;;;;;5.77;96.83;99185.59;10473714;28;20037;-81
2024/01/01 10:50:32;;;;;;;7.85;3.15;;;;;;;5.86;96.70;99160.88;10474743;28;20040;-81
2024/01/01 10:55:54;;;;;;;5.18;1.80;;;;;;;5.92;95.59;99181.72;10475468;28;20033;-81
2024/01/01 11:01:06;;;;;;;8.93;1.63;;;;;;;6.22;93.33;99182.84;10460971;28;20053;-80
2024/01/01 11:06:24;;;;;;;5.30;1.23;;;;;;;6.46;91.20;99184.47;10466472;28;20064;-81
2024/01/01 11:11:30;;;;;;;6.43;1.27;;;;;;;6.25;91.16;99195.91;10469180;28;20098;-80
2024/01/01 11:22:31;;;;;;;3.30;1.77;;;;;;;6.18;90.95;99206.25;10548133;28;20367;-78
2024/01/01 11:27:47;;;;;;;4.05;2.17;;;;;;;5.64;91.71;99220.34;10518742;28;20087;-79
2024/01/01 11:32:51;;;;;;;7.00;1.63;;;;;;;6.12;88.67;99192.56;10523910;28;20526;-80
2024/01/01 11:37:59;;;;;;;2.55;1.50;;;;;;;5.99;89.03;99168.72;10511346;28;20048;-78
2024/01/01 11:43:06;;;;;;;4.97;1.55;;;;;;;6.02;88.77;99202.28;10528013;28;20051;-80
2024/01/01 11:48:10;;;;;;;3.88;1.45;;;;;;;6.17;87.34;99201.03;10515736;28;20488;-79
2024/01/01 11:53:16;;;;;;;5.28;2.22;;;;;;;6.77;86.70;99207.59;10503075;28;20594;-78
2024/01/01 11:58:20;;;;;;;12.48;2.38;;;;;;;6.27;89.45;99217.97;10515735;28;20085;-79
2024/01/01 12:03:23;;;;;;;3.55;1.95;;;;;;;5.83;96.87;99208.25;10503184;28;20500;-81
2024/01/01 12:08:27;;;;;;;9.45;2.65;;;;;;;6.09;96.45;99187.50;10510924;28;20324;-81
2024/01/01 12:13:30;;;;;;;4.85;2.30;;;;;;;5.63;99.92;99233.81;10521231;28;20483;-80
2024/01/01 12:18:33;;;;;;;9.23;2.83;;;;;;;5.47;100.00;99208.38;10527425;28;20570;-80
2024/01/01 12:23:38;;;;;;;4.47;1.92;;;;;;;4.78;100.00;99218.13;10521308;28;20045;-80
2024/01/01 12:28:41;;;;;;;9.60;3.97;;;;;;;4.97;100.00;99202.47;10520656;28;20033;-79
2024/01/01 12:33:50;;;;;;;13.27;3.92;;;;;;;4.60;100.00;99217.69;10459776;28;20056;-81
2024/01/01 12:38:55;;;;;;;5.80;2.60;;;;;;;4.70;100.00;99208.06;10479161;28;20045;-83
2024/01/01 12:43:59;;;;;;;8.02;3.95;;;;;;;4.62;100.00;99224.59;10472062;28;20059;-84
2024/01/01 12:49:03;;;;;;;12.77;6.43;;;;;;;4.79;100.00;99220.66;10477253;28;20068;-83
2024/01/01 12:54:07;;;;;;;12.68;4.25;;;;;;;4.74;100.00;99233.47;10482421;28;20603;-82
2024/01/01 12:59:10;;;;;;;13.38;6.60;;;;;;;4.76;100.00;99234.19;10492081;28;20047;-83
2024/01/01 13:04:13;;;;;;;14.50;5.32;;;;;;;4.78;100.00;99236.75;10482646;28;20044;-83
2024/01/01 13:09:18;;;;;;;18.27;5.82;;;;;;;4.73;100.00;99222.94;10489597;28;20064;-85
2024/01/01 13:14:21;;;;;;;6.15;4.03;;;;;;;4.64;100.00;99239.63;10475691;28;20079;-85
2024/01/01 13:19:26;;;;;;;8.48;5.20;;;;;;;4.48;100.00;99232.75;10476842;28;20056;-84
2024/01/01 13:24:33;;;;;;;9.82;4.35;;;;;;;4.60;100.00;99237.16;10479824;28;20389;-84
2024/01/01 13:29:37;;;;;;;12.00;6.53;;;;;;;4.80;100.00;99246.31;10474221;28;20108;-85
2024/01/01 13:34:40;;;;;;;8.00;5.20;;;;;;;4.81;100.00;99253.34;10475984;28;20781;-83
2024/01/01 13:39:44;;;;;;;18.90;7.93;;;;;;;5.37;100.00;99251.81;10475625;28;20046;-83
2024/01/01 13:44:47;;;;;;;8.82;4.90;;;;;;;5.38;100.00;99273.03;10470412;28;20074;-82
2024/01/01 13:49:50;;;;;;;7.20;3.38;;;;;;;4.89;100.00;99266.06;10475820;28;20053;-82
2024/01/01 13:54:55;;;;;;;6.00;3.40;;;;;;;5.13;100.00;99275.84;10489139;28;20040;-83
2024/01/01 13:59:58;;;;;;;5.85;3.13;;;;;;;5.18;100.00;99279.84;10492373;28;20075;-83
2024/01/01 14:05:04;;;;;;;3.92;2.55;;;;;;;5.05;100.00;99287.09;10490343;28;20070;-80
2024/01/01 14:10:09;;;;;;;10.30;3.33;;;;;;;5.25;100.00;99275.75;10472000;28;20044;-80
2024/01/01 14:15:12;;;;;;;12.32;4.65;;;;;;;5.15;100.00;99293.41;10493989;28;20051;-81
2024/01/01 14:20:15;;;;;;;13.43;4.50;;;;;;;5.13;100.00;99292.69;10483216;28;20036;-80
2024/01/01 14:25:20;;;;;;;11.30;4.15;;;;;;;5.14;100.00;99296.19;10488377;28;20051;-80
2024/01/01 14:30:23;;;;;;;9.70;4.50;;;;;;;5.07;100.00;99306.44;10492677;28;20048;-80
2024/01/01 14:35:27;;;;;;;8.27;3.38;;;;;;;5.13;100.00;99313.09;10476388;28;20037;-80
2024/01/01 14:40:31;;;;;;;8.68;4.07;;;;;;;5.09;100.00;99311.66;10480184;28;20055;-80
2024/01/01 14:45:35;;;;;;;15.82;4.65;;;;;;;5.12;100.00;99320.25;10507996;28;20040;-82
2024/01/01 14:50:39;;;;;;;14.95;5.13;;;;;;;5.00;100.00;99322.03;10492474;28;20059;-82
2024/01/01 14:55:44;;;;;;;9.30;4.22;;;;;;;5.04;100.00;99335.94;10497427;28;20032;-79
2024/01/01 15:00:47;;;;;;;9.25;3.58;;;;;;;5.11;100.00;99352.31;10487037;28;20671;-84
2024/01/01 15:05:50;;;;;;;16.10;6.05;;;;;;;4.82;100.00;99361.44;10490358;28;20032;-80
2024/01/01 15:10:57;;;;;;;9.82;4.18;;;;;;;4.52;100.00;99393.78;10475267;28;20036;-81
2024/01/01 15:16:00;;;;;;;16.52;8.55;;;;;;;4.51;100.00;99362.84;10496118;28;20037;-79
2024/01/01 15:21:03;;;;;;;9.18;4.05;;;;;;;4.61;100.00;99373.69;10483376;28;20131;-80
2024/01/01 15:26:08;;;;;;;10.63;3.53;;;;;;;4.28;100.00;99368.94;10466423;28;20102;-79
2024/01/01 15:31:16;;;;;;;9.77;4.72;;;;;;;4.51;100.00;99367.31;10480990;28;20040;-81
2024/01/01 15:36:19;;;;;;;10.52;4.90;;;;;;;4.83;100.00;99378.28;10478239;28;20045;-81
2024/01/01 15:41:23;;;;;;;8.00;3.92;;;;;;;4.60;100.00;99382.59;10477791;28;20039;-80
2024/01/01 15:46:26;;;;;;;8.98;4.00;;;;;;;5.15;100.00;99377.75;10461184;28;20049;-83
2024/01/01 15:51:29;;;;;;;18.40;5.35;;;;;;;5.14;100.00;99382.22;10465542;28;20411;-79
2024/01/01 15:56:44;;;;;;;25.70;6.22;;;;;;;5.25;100.00;99392.06;10497637;28;20035;-81
2024/01/01 16:01:49;;;;;;;13.65;5.25;;;;;;;4.96;100.00;99412.81;10498248;28;20029;-81
2024/01/01 16:06:53;;;;;;;13.40;6.68;;;;;;;4.57;100.00;99436.88;10494492;28;20478;-85
2024/01/01 16:11:57;;;;;;;10.63;4.10;;;;;;;3.70;100.00;99464.16;10467240;28;20041;-85
2024/01/01 16:17:01;;;;;;;7.55;1.83;;;;;;;3.41;100.00;99437.75;10471470;28;20044;-85
2024/01/01 16:22:08;;;;;;;2.35;1.40;;;;;;;3.58;100.00;99431.31;10465913;28;20629;-84
2024/01/01 16:27:12;;;;;;;4.15;1.10;;;;;;;3.40;100.00;99435.19;10455905;28;20075;-82
2024/01/01 16:32:15;;;;;;;5.05;1.20;;;;;;;3.57;100.00;99431.44;10464128;28;20044;-82
2024/01/01 16:37:18;;;;;;;9.20;3.38;;;;;;;3.86;100.00;99435.63;10475972;28;20045;-82
2024/01/01 16:42:22;;;;;;;7.30;2.90;;;;;;;3.95;100.00;99423.53;10467219;28;20124;-81
2024/01/01 16:47:26;;;;;;;9.23;3.90;;;;;;;3.98;100.00;99433.94;10472416;28;20071;-80
2024/01/01 16:52:29;;;;;;;14.15;6.78;;;;;;;4.04;100.00;99443.28;10461415;28;20072;-79
2024/01/01 16:57:34;;;;;;;19.63;8.68;;;;;;;4.42;100.00;99445.94;10478038;28;20526;-80
2024/01/01 17:02:37;;;;;;;15.38;10.10;;;;;;;4.35;100.00;99500.50;10463559;28;20481;-83
2024/01/01 17:07:40;;;;;;;1.85;1.35;;;;;;;2.78;100.00;99478.13;10478347;28;20067;-81
2024/01/01 17:12:44;;;;;;;1.55;1.00;;;;;;;3.02;100.00;99483.69;10461398;28;20412;-81
2024/01/01 17:17:47;;;;;;;5.05;1.40;;;;;;;2.70;100.00;99491.88;10475518;28;20056;-80
2024/01/01 17:22:50;;;;;;;3.53;2.15;;;;;;;3.00;100.00;99478.47;10458930;28;20459;-80
2024/01/01 17:28:08;;;;;;;8.00;3.15;;;;;;;2.89;100.00;99474.81;10475242;28;20404;-81
2024/01/01 17:33:12;;;;;;;7.45;2.95;;;;;;;3.23;100.00;99471.66;10440858;28;20046;-82
2024/01/01 17:38:17;;;;;;;6.38;3.25;;;;;;;3.34;100.00;99483.41;10374355;28;20328;-81
2024/01/01 17:43:22;;;;;;;12.80;4.90;;;;;;;3.48;100.00;99491.31;10364022;28;20060;-80
2024/01/01 17:48:25;;;;;;;10.45;4.90;;;;;;;3.57;100.00;99493.38;10358525;28;20162;-81
2024/01/01 17:53:28;;;;;;;12.70;6.28;;;;;;;3.65;100.00;99506.16;10377536;28;20076;-81
2024/01/01 17:58:32;;;;;;;14.50;5.65;;;;;;;3.58;100.00;99505.69;10376107;28;20048;-81
2024/01/01 18:03:37;;;;;;;17.30;6.90;;;;;;;4.08;100.00;99504.09;10376061;28;20300;-80
2024/01/01 18:08:40;;;;;;;17.75;6.75;;;;;;;4.16;100.00;99508.88;10398584;28;21196;-82
2024/01/01 18:13:45;;;;;;;15.48;5.32;;;;;;;4.29;100.00;99519.53;10381606;28;20187;-80
2024/01/01 18:18:48;;;;;;;25.20;6.82;;;;;;;4.38;100.00;99522.41;10398225;28;20075;-80
2024/01/01 18:23:52;;;;;;;23.80;8.18;;;;;;;4.65;100.00;99518.78;10376969;28;20050;-80
2024/01/01 18:28:57;;;;;;;26.25;9.32;;;;;;;4.59;100.00;99509.44;10386961;28;20071;-80
2024/01/01 18:34:00;;;;;;;33.33;7.97;;;;;;;4.49;100.00;99523.47;10419091;28;20512;-80
2024/01/01 18:39:03;;;;;;;24.08;4.95;;;;;;;4.56;100.00;99514.13;10395980;28;21197;-79
2024/01/01 18:44:07;;;;;;;26.02;5.57;;;;;;;4.43;100.00;99521.25;10373753;28;20467;-80
2024/01/01 18:49:14;;;;;;;17.52;5.05;;;;;;;4.64;100.00;99525.06;10373446;28;20503;-81
2024/01/01 18:54:19;;;;;;;32.17;6.72;;;;;;;4.50;100.00;99525.16;10382321;28;20056;-80
2024/01/01 18:59:24;;;;;;;26.20;6.18;;;;;;;4.49;100.00;99523.47;10355344;28;20063;-81
2024/01/01 19:04:32;;;;;;;28.23;5.60;;;;;;;4.61;100.00;99522.63;10386516;28;20049;-79
2024/01/01 19:09:36;;;;;;;23.60;5.80;;;;;;;4.72;100.00;99522.72;10423175;28;20147;-79
2024/01/01 19:14:43;;;;;;;28.70;5.97;;;;;;;4.32;100.00;99533.47;10418308;28;20037;-78
2024/01/01 19:19:49;;;;;;;32.97;6.22;;;;;;;4.71;100.00;99534.31;10383999;28;20052;-78
2024/01/01 19:24:54;;;;;;;24.73;5.40;;;;;;;4.74;100.00;99533.25;10379683;28;21329;-78
2024/01/01 19:29:59;;;;;;;23.08;5.28;;;;;;;4.75;100.00;99540.28;10391259;28;20053;-79
2024/01/01 19:35:02;;;;;;;18.08;5.60;;;;;;;4.78;100.00;99532.09;10349076;28;20412;-80
2024/01/01 19:40:06;;;;;;;27.33;5.70;;;;;;;4.77;100.00;99528.59;10379663;28;20061;-81
2024/01/01 19:45:11;;;;;;;37.17;5.65;;;;;;;4.86;100.00;99529.75;10377783;28;20387;-81
2024/01/01 19:50:14;;;;;;;17.40;4.97;;;;;;;4.83;100.00;99527.31;10404499;28;20045;-80
2024/01/01 19:55:17;;;;;;;20.13;5.32;;;;;;;4.88;100.00;99530.47;10444176;28;20132;-80
2024/01/01 20:00:22;;;;;;;22.35;7.20;;;;;;;4.67;100.00;99519.53;10439773;28;20064;-82
2024/01/01 20:05:25;;;;;;;25.60;5.25;;;;;;;4.70;100.00;99513.16;10422215;28;20079;-78
2024/01/01 20:10:28;;;;;;;27.35;5.78;;;;;;;4.77;100.00;99522.38;10435380;28;20049;-81
2024/01/01 20:15:33;;;;;;;32.03;6.15;;;;;;;4.72;100.00;99521.88;10431067;28;20104;-77
2024/01/01 20:20:36;;;;;;;25.92;5.70;;;;;;;4.64;100.00;99518.91;10385973;28;20057;-81
2024/01/01 20:25:39;;;;;;;20.38;5.13;;;;;;;4.78;100.00;99524.09;10402763;28;20139;-79
2024/01/01 20:30:44;;;;;;;32.70;6.43;;;;;;;4.83;100.00;99516.66;10386866;28;20049;-80
2024/01/01 20:35:47;;;;;;;23.67;5.72;;;;;;;4.88;100.00;99514.50;10407964;28;20092;-78
2024/01/01 20:40:50;;;;;;;26.73;5.70;;;;;;;5.11;100.00;99509.38;10412234;28;20044;-78
2024/01/01 20:45:55;;;;;;;23.70;6.32;;;;;;;5.19;100.00;99494.56;10389531;28;20128;-82
2024/01/01 20:50:58;;;;;;;26.05;6.03;;;;;;;5.10;100.00;99505.88;10409416;28;20049;-80
2024/01/01 20:56:01;;;;;;;29.02;6.93;;;;;;;5.12;100.00;99495.94;10389204;28;20054;-82
2024/01/01 21:01:06;;;;;;;21.52;5.55;;;;;;;5.14;100.00;99493.19;10377860;28;20136;-80
2024/01/01 21:06:10;;;;;;;19.55;5.57;;;;;;;5.08;100.00;99496.31;10372570;28;21239;-80
2024/01/01 21:11:13;;;;;;;28.65;6.07;;;;;;;5.02;100.00;99487.78;10368809;28;20462;-80
2024/01/01 21:16:21;;;;;;;17.27;5.18;;;;;;;5.12;100.00;99487.97;10379159;28;20537;-80
2024/01/01 21:21:25;;;;;;;25.73;4.30;;;;;;;5.01;100.00;99487.91;10380533;28;20037;-80
2024/01/01 21:26:32;;;;;;;16.88;4.72;;;;;;;4.86;100.00;99479.19;10383541;28;20049;-79
2024/01/01 21:31:36;;;;;;;20.60;4.75;;;;;;;4.75;100.00;99476.44;10380528;28;20060;-80
2024/01/01 21:36:39;;;;;;;21.70;4.13;;;;;;;4.72;100.00;99474.00;10391375;28;20052;-79
2024/01/01 21:41:42;;;;;;;26.80;5.07;;;;;;;4.73;100.00;99486.34;10364935;28;20065;-79
2024/01/01 21:46:46;;;;;;;20.05;4.35;;;;;;;4.77;100.00;99495.78;10373033;28;20048;-79
2024/01/01 21:51:50;;;;;;;22.15;4.00;;;;;;;4.91;100.00;99486.81;10399251;28;20539;-79
2024/01/01 21:56:53;;;;;;;19.50;3.45;;;;;;;4.91;100.00;99490.34;10394097;28;21304;-79
2024/01/01 22:01:57;;;;;;;19.70;3.50;;;;;;;4.73;100.00;99502.28;10388855;28;20049;-78
2024/01/01 22:07:00;;;;;;;17.70;4.25;;;;;;;4.71;100.00;99497.06;10379662;28;20717;-78
2024/01/01 22:12:06;;;;;;;23.55;4.45;;;;;;;4.73;100.00;99500.47;10399389;28;20121;-78
2024/01/01 22:17:10;;;;;;;21.88;4.40;;;;;;;4.57;100.00;99497.19;10396770;28;20056;-78
2024/01/01 22:22:13;;;;;;;22.00;4.43;;;;;;;4.56;100.00;99498.16;10400809;28;20138;-78
2024/01/01 22:27:16;;;;;;;22.40;5.03;;;;;;;4.54;100.00;99489.44;10400618;28;20056;-78
2024/01/01 22:32:21;;;;;;;21.27;5.55;;;;;;;4.51;100.00;99487.00;10384470;28;20051;-79
2024/01/01 22:37:24;;;;;;;19.75;4.03;;;;;;;4.50;100.00;99479.97;10420966;28;20049;-79
2024/01/01 22:42:27;;;;;;;19.98;4.15;;;;;;;4.49;100.00;99457.84;10401392;28;20049;-79
2024/01/01 22:47:31;;;;;;;23.00;4.32;;;;;;;4.49;100.00;99449.84;10413424;28;20183;-79
2024/01/01 22:52:35;;;;;;;18.17;4.20;;;;;;;4.45;100.00;99440.41;10392832;28;20060;-80
2024/01/01 22:57:38;;;;;;;15.00;3.92;;;;;;;4.36;100.00;99428.63;10390955;28;20049;-79
2024/01/01 23:02:42;;;;;;;19.50;4.97;;;;;;;4.42;100.00;99405.22;10422870;28;20055;-80
2024/01/01 23:07:45;;;;;;;19.13;4.38;;;;;;;4.54;100.00;99405.16;10436143;28;20049;-80
2024/01/01 23:12:49;;;;;;;10.90;3.20;;;;;;;4.66;100.00;99394.59;10450082;28;20045;-79
2024/01/01 23:17:53;;;;;;;21.23;3.58;;;;;;;4.73;100.00;99388.75;10432855;28;20052;-79
2024/01/01 23:22:57;;;;;;;19.15;4.05;;;;;;;4.83;100.00;99379.13;10430901;28;20489;-79
2024/01/01 23:28:00;;;;;;;22.63;3.70;;;;;;;4.92;100.00;99382.94;10445255;28;20053;-79
2024/01/01 23:33:06;;;;;;;15.95;3.60;;;;;;;5.01;100.00;99365.47;10446216;28;20044;-78
2024/01/01 23:38:10;;;;;;;21.42;3.97;;;;;;;5.10;100.00;99356.81;10429854;28;20524;-78